createdAt,value
2019-03-31T00:00:37.184Z,79.80
2019-03-31T00:03:05.928Z,80.40
2019-03-31T00:05:37.647Z,80.90
2019-03-31T00:08:06.105Z,80.80
2019-03-31T00:10:35.253Z,81.50
2019-03-31T00:13:04.420Z,81.40
2019-03-31T00:15:33.556Z,81.20
2019-03-31T00:18:02.507Z,81.00
2019-03-31T00:20:31.707Z,81.50
2019-03-31T00:23:00.415Z,81.30
2019-03-31T00:25:29.703Z,82.10
2019-03-31T00:27:58.382Z,82.70
2019-03-31T00:30:27.226Z,82.30
2019-03-31T00:32:57.095Z,82.90
2019-03-31T00:35:26.575Z,83.30
2019-03-31T00:37:55.584Z,83.30
2019-03-31T00:40:24.908Z,83.80
2019-03-31T00:42:53.535Z,83.80
2019-03-31T00:45:22.553Z,83.70
2019-03-31T00:47:51.378Z,83.60
2019-03-31T00:50:20.683Z,83.50
2019-03-31T00:52:49.519Z,83.10
2019-03-31T00:55:18.088Z,82.90
2019-03-31T00:57:47.215Z,83.00
2019-03-31T01:00:38.234Z,83.30
2019-03-31T01:03:07.979Z,83.50
2019-03-31T01:05:38.743Z,83.70
2019-03-31T01:08:07.363Z,84.00
2019-03-31T01:10:36.256Z,83.70
2019-03-31T01:13:05.678Z,83.90
2019-03-31T01:15:34.787Z,84.50
2019-03-31T01:18:03.979Z,84.90
2019-03-31T01:20:33.150Z,84.60
2019-03-31T01:23:02.151Z,84.70
2019-03-31T01:25:31.243Z,85.20
2019-03-31T01:28:00.381Z,85.30
2019-03-31T01:30:29.116Z,85.00
2019-03-31T01:32:58.531Z,85.40
2019-03-31T01:35:26.990Z,85.50
2019-03-31T01:37:55.692Z,86.60
2019-03-31T01:40:25.217Z,86.40
2019-03-31T01:42:54.188Z,86.00
2019-03-31T01:45:23.381Z,86.40
2019-03-31T01:47:52.395Z,87.00
2019-03-31T01:50:21.571Z,86.60
2019-03-31T01:52:50.584Z,86.90
2019-03-31T01:55:19.217Z,87.30
2019-03-31T01:57:48.187Z,87.10
2019-03-31T02:00:30.397Z,87.20
2019-03-31T02:02:58.949Z,87.60
2019-03-31T02:05:27.703Z,87.90
2019-03-31T02:07:56.807Z,88.30
2019-03-31T02:10:26.115Z,88.00
2019-03-31T02:12:55.111Z,88.60
2019-03-31T02:15:23.527Z,88.40
2019-03-31T02:17:53.546Z,88.20
2019-03-31T02:20:22.523Z,89.00
2019-03-31T02:22:51.699Z,88.70
2019-03-31T02:25:21.031Z,89.20
2019-03-31T02:27:49.998Z,89.50
2019-03-31T02:30:18.663Z,89.30
2019-03-31T02:32:47.461Z,89.60
2019-03-31T02:35:17.589Z,89.80
2019-03-31T02:37:46.924Z,90.20
2019-03-31T02:40:15.565Z,89.90
2019-03-31T02:42:44.385Z,89.50
2019-03-31T02:45:13.565Z,90.90
2019-03-31T02:47:42.564Z,90.00
2019-03-31T02:50:15.381Z,90.00
2019-03-31T02:52:44.235Z,90.00
2019-03-31T02:55:12.662Z,90.00
2019-03-31T02:57:42.113Z,90.10
2019-03-31T03:00:10.609Z,90.00
2019-03-31T03:02:42.630Z,90.10
2019-03-31T03:05:19.866Z,90.30
2019-03-31T03:07:51.388Z,90.20
2019-03-31T03:10:22.836Z,90.20
2019-03-31T03:12:52.557Z,90.40
2019-03-31T03:15:28.219Z,90.30
2019-03-31T03:17:57.344Z,90.60
2019-03-31T03:20:25.638Z,90.40
2019-03-31T03:22:53.924Z,90.30
2019-03-31T03:25:22.188Z,90.40
2019-03-31T03:27:50.497Z,90.80
2019-03-31T03:30:19.002Z,90.70
2019-03-31T03:33:12.538Z,90.50
2019-03-31T03:35:19.222Z,90.60
2019-03-31T03:37:47.911Z,90.90
2019-03-31T03:40:16.197Z,90.80
2019-03-31T03:42:44.865Z,91.00
2019-03-31T03:45:13.200Z,90.90
2019-03-31T03:47:41.510Z,91.10
2019-03-31T03:50:09.883Z,91.20
2019-03-31T03:52:38.117Z,91.10
2019-03-31T03:55:06.506Z,91.40
2019-03-31T03:57:34.766Z,91.70
2019-03-31T04:00:03.339Z,91.20
2019-03-31T04:02:31.576Z,92.20
2019-03-31T04:04:59.810Z,91.60
2019-03-31T04:07:28.482Z,91.40
2019-03-31T04:09:56.734Z,91.40
2019-03-31T04:12:24.992Z,91.90
2019-03-31T04:14:53.244Z,91.60
2019-03-31T04:17:21.476Z,91.60
2019-03-31T04:19:49.735Z,91.80
2019-03-31T04:22:17.988Z,91.60
2019-03-31T04:24:46.265Z,91.60
2019-03-31T04:27:18.711Z,91.70
2019-03-31T04:29:44.597Z,91.80
2019-03-31T04:32:12.874Z,91.70
2019-03-31T04:34:41.114Z,91.90
2019-03-31T04:37:09.345Z,92.20
2019-03-31T04:39:37.586Z,92.20
2019-03-31T04:42:06.222Z,92.50
2019-03-31T04:44:34.460Z,92.10
2019-03-31T04:47:02.733Z,92.10
2019-03-31T04:49:30.984Z,92.40
2019-03-31T04:51:59.228Z,92.30
2019-03-31T04:54:27.468Z,92.50
2019-03-31T04:56:55.737Z,92.30
2019-03-31T04:59:23.975Z,92.40
2019-03-31T05:01:52.219Z,92.30
2019-03-31T05:04:20.451Z,92.40
2019-03-31T05:06:48.683Z,92.60
2019-03-31T05:09:16.944Z,92.80
2019-03-31T05:11:45.567Z,92.40
2019-03-31T05:14:13.820Z,92.60
2019-03-31T05:16:42.053Z,92.70
2019-03-31T05:19:10.696Z,92.50
2019-03-31T05:21:38.988Z,92.70
2019-03-31T05:24:07.256Z,92.70
2019-03-31T05:26:35.499Z,92.90
2019-03-31T05:29:04.204Z,92.80
2019-03-31T05:31:32.557Z,92.90
2019-03-31T05:34:00.850Z,92.60
2019-03-31T05:36:29.848Z,92.60
2019-03-31T05:38:58.119Z,92.70
2019-03-31T05:41:26.396Z,92.70
2019-03-31T05:44:05.574Z,92.60
2019-03-31T05:46:25.072Z,92.70
2019-03-31T05:48:53.336Z,92.50
2019-03-31T05:51:21.876Z,92.90
2019-03-31T05:53:51.428Z,92.30
2019-03-31T05:56:19.699Z,91.60
2019-03-31T05:58:48.383Z,90.70
2019-03-31T06:01:17.018Z,89.70
2019-03-31T06:03:45.278Z,88.10
2019-03-31T06:06:13.975Z,88.10
2019-03-31T06:08:42.220Z,88.20
2019-03-31T06:11:10.509Z,87.80
2019-03-31T06:13:38.755Z,88.00
2019-03-31T06:16:07.001Z,88.90
2019-03-31T06:18:54.559Z,89.50
2019-03-31T06:21:23.452Z,89.20
2019-03-31T06:23:52.326Z,87.50
2019-03-31T06:26:21.235Z,84.40
2019-03-31T06:28:50.128Z,81.90
2019-03-31T06:31:19.203Z,79.80
2019-03-31T06:33:48.219Z,78.90
2019-03-31T06:36:16.963Z,78.70
2019-03-31T06:38:45.704Z,78.10
2019-03-31T06:41:14.826Z,78.20
2019-03-31T06:43:43.756Z,75.10
2019-03-31T06:46:12.985Z,72.70
2019-03-31T06:48:42.042Z,70.80
2019-03-31T06:51:11.345Z,69.70
2019-03-31T06:53:40.548Z,67.70
2019-03-31T06:56:09.204Z,64.10
2019-03-31T06:58:38.047Z,62.80
2019-03-31T07:01:06.915Z,62.60
2019-03-31T07:03:35.191Z,60.40
2019-03-31T07:06:03.765Z,60.20
2019-03-31T07:08:32.963Z,59.60
2019-03-31T07:11:01.590Z,58.50
2019-03-31T07:13:30.444Z,57.40
2019-03-31T07:15:59.643Z,57.40
2019-03-31T07:18:28.620Z,56.20
2019-03-31T07:20:57.424Z,56.50
2019-03-31T07:23:26.140Z,55.80
2019-03-31T07:25:55.097Z,54.50
2019-03-31T07:28:26.929Z,53.10
2019-03-31T07:30:59.180Z,51.90
2019-03-31T07:33:26.681Z,52.00
2019-03-31T07:35:55.959Z,51.20
2019-03-31T07:38:38.039Z,49.50
2019-03-31T07:40:56.094Z,48.50
2019-03-31T07:43:26.360Z,48.90
2019-03-31T07:45:55.959Z,48.10
2019-03-31T07:48:25.152Z,48.50
2019-03-31T07:50:54.152Z,48.00
2019-03-31T07:53:23.549Z,47.00
2019-03-31T07:55:52.781Z,47.30
2019-03-31T07:58:21.451Z,45.70
2019-03-31T08:00:50.159Z,45.30
2019-03-31T08:03:19.339Z,44.70
2019-03-31T08:05:48.211Z,45.20
2019-03-31T08:08:17.112Z,44.70
2019-03-31T08:10:46.748Z,43.30
2019-03-31T08:13:15.460Z,42.60
2019-03-31T08:15:44.695Z,42.10
2019-03-31T08:18:13.728Z,41.20
2019-03-31T08:20:42.371Z,41.50
2019-03-31T08:23:11.363Z,41.30
2019-03-31T08:25:40.024Z,41.00
2019-03-31T08:28:08.840Z,40.30
2019-03-31T08:30:39.076Z,40.40
2019-03-31T08:33:08.281Z,40.50
2019-03-31T08:35:47.094Z,39.80
2019-03-31T08:38:07.188Z,39.00
2019-03-31T08:40:35.428Z,39.40
2019-03-31T08:43:03.700Z,38.00
2019-03-31T08:45:31.977Z,38.60
2019-03-31T08:48:01.438Z,38.70
2019-03-31T08:50:29.775Z,38.60
2019-03-31T08:52:58.017Z,38.10
2019-03-31T08:55:26.264Z,37.60
2019-03-31T08:57:54.564Z,36.90
2019-03-31T09:00:42.246Z,37.00
2019-03-31T09:03:10.534Z,36.40
2019-03-31T09:05:38.779Z,36.40
2019-03-31T09:08:07.068Z,35.80
2019-03-31T09:10:35.335Z,36.30
2019-03-31T09:13:03.597Z,36.00
2019-03-31T09:15:31.933Z,35.70
2019-03-31T09:18:00.225Z,35.70
2019-03-31T09:20:28.486Z,34.60
2019-03-31T09:22:56.730Z,34.30
2019-03-31T09:25:27.779Z,35.10
2019-03-31T09:27:56.048Z,33.90
2019-03-31T09:30:24.323Z,34.60
2019-03-31T09:32:52.630Z,34.40
2019-03-31T09:35:20.860Z,34.20
2019-03-31T09:37:49.123Z,33.80
2019-03-31T09:40:17.582Z,33.30
2019-03-31T09:42:45.819Z,33.40
2019-03-31T09:45:14.722Z,33.10
2019-03-31T09:47:42.945Z,33.20
2019-03-31T09:50:12.097Z,33.30
2019-03-31T09:52:40.538Z,33.20
2019-03-31T09:55:09.481Z,33.20
2019-03-31T09:57:37.930Z,33.50
2019-03-31T10:00:07.109Z,32.80
2019-03-31T10:02:35.887Z,33.60
2019-03-31T10:05:05.428Z,33.30
2019-03-31T10:07:35.008Z,33.00
2019-03-31T10:10:03.498Z,32.90
2019-03-31T10:12:31.747Z,31.30
2019-03-31T10:14:59.999Z,31.00
2019-03-31T10:17:28.276Z,30.70
2019-03-31T10:19:56.507Z,30.60
2019-03-31T10:22:24.845Z,28.90
2019-03-31T10:24:53.546Z,28.70
2019-03-31T10:27:22.256Z,28.90
2019-03-31T10:29:50.532Z,30.10
2019-03-31T10:32:18.915Z,29.90
2019-03-31T10:34:47.213Z,30.60
2019-03-31T10:37:23.120Z,31.90
2019-03-31T10:39:51.383Z,30.00
2019-03-31T10:42:19.711Z,30.50
2019-03-31T10:44:47.971Z,30.80
2019-03-31T10:47:16.275Z,31.50
2019-03-31T10:49:44.641Z,32.30
2019-03-31T10:52:23.403Z,32.90
2019-03-31T10:54:51.625Z,33.70
2019-03-31T10:57:20.017Z,34.20
2019-03-31T10:59:48.291Z,34.20
2019-03-31T11:02:16.551Z,33.60
2019-03-31T11:04:45.133Z,33.80
2019-03-31T11:07:13.536Z,33.20
2019-03-31T11:09:41.820Z,32.80
2019-03-31T11:12:11.041Z,32.60
2019-03-31T11:14:39.499Z,34.10
2019-03-31T11:17:07.895Z,34.50
2019-03-31T11:19:37.160Z,34.10
2019-03-31T11:22:25.645Z,35.10
2019-03-31T11:24:54.190Z,35.60
2019-03-31T11:27:23.188Z,34.80
2019-03-31T11:29:51.854Z,34.40
2019-03-31T11:32:21.149Z,34.40
2019-03-31T11:34:49.851Z,34.10
2019-03-31T11:37:18.208Z,34.00
2019-03-31T11:39:46.576Z,34.30
2019-03-31T11:42:15.579Z,35.40
2019-03-31T11:44:44.378Z,35.80
2019-03-31T11:47:13.580Z,36.80
2019-03-31T11:49:42.618Z,36.90
2019-03-31T11:52:10.863Z,37.80
2019-03-31T11:54:39.657Z,38.20
2019-03-31T11:57:09.391Z,37.10
2019-03-31T11:59:38.966Z,36.30
2019-03-31T12:02:07.959Z,36.60
2019-03-31T12:04:36.952Z,37.20
2019-03-31T12:07:05.520Z,37.40
2019-03-31T12:09:34.829Z,37.00
2019-03-31T12:12:03.575Z,37.60
2019-03-31T12:14:32.411Z,37.50
2019-03-31T12:17:01.513Z,38.10
2019-03-31T12:19:30.445Z,37.60
2019-03-31T12:22:02.550Z,38.20
2019-03-31T12:24:31.860Z,38.10
2019-03-31T12:27:00.503Z,37.60
2019-03-31T12:29:29.356Z,37.40
2019-03-31T12:31:58.316Z,37.20
2019-03-31T12:34:27.324Z,37.10
2019-03-31T12:36:56.732Z,37.20
2019-03-31T12:39:26.312Z,37.50
2019-03-31T12:41:54.759Z,39.00
2019-03-31T12:44:25.251Z,38.20
2019-03-31T12:46:57.116Z,38.50
2019-03-31T12:49:25.748Z,37.80
2019-03-31T12:51:55.217Z,37.50
2019-03-31T12:54:24.390Z,37.30
2019-03-31T12:56:53.765Z,37.50
2019-03-31T12:59:23.120Z,37.90
2019-03-31T13:01:52.073Z,38.00
2019-03-31T13:04:21.272Z,38.00
2019-03-31T13:06:49.954Z,37.80
2019-03-31T13:09:19.319Z,37.50
2019-03-31T13:11:50.399Z,37.80
2019-03-31T13:14:18.391Z,37.90
2019-03-31T13:16:47.281Z,37.60
2019-03-31T13:19:16.472Z,38.60
2019-03-31T13:21:45.659Z,38.50
2019-03-31T13:24:14.840Z,38.00
2019-03-31T13:26:43.848Z,39.00
2019-03-31T13:29:13.058Z,39.20
2019-03-31T13:31:42.408Z,39.20
2019-03-31T13:34:12.508Z,38.40
2019-03-31T13:36:41.620Z,37.40
2019-03-31T13:39:10.860Z,35.30
2019-03-31T13:41:40.160Z,36.20
2019-03-31T13:44:08.801Z,36.70
2019-03-31T13:46:37.527Z,36.40
2019-03-31T13:49:06.857Z,35.20
2019-03-31T13:51:35.739Z,35.90
2019-03-31T13:54:04.379Z,34.50
2019-03-31T13:56:33.809Z,34.60
2019-03-31T13:59:03.123Z,34.70
2019-03-31T14:01:32.445Z,35.60
2019-03-31T14:04:03.492Z,35.30
2019-03-31T14:06:31.742Z,35.50
2019-03-31T14:09:02.075Z,35.60
2019-03-31T14:11:31.201Z,35.80
2019-03-31T14:13:59.836Z,36.30
2019-03-31T14:16:29.388Z,37.60
2019-03-31T14:18:58.439Z,37.20
2019-03-31T14:21:27.757Z,37.30
2019-03-31T14:23:57.049Z,33.20
2019-03-31T14:26:26.157Z,31.90
2019-03-31T14:28:54.857Z,30.00
2019-03-31T14:31:24.024Z,29.80
2019-03-31T14:33:52.442Z,29.50
2019-03-31T14:36:21.500Z,29.60
2019-03-31T14:38:50.710Z,29.50
2019-03-31T14:41:19.708Z,29.60
2019-03-31T14:43:48.363Z,29.40
2019-03-31T14:46:19.632Z,29.30
2019-03-31T14:48:47.892Z,28.70
2019-03-31T14:51:16.570Z,28.70
2019-03-31T14:53:45.303Z,33.30
2019-03-31T14:56:14.604Z,37.10
2019-03-31T14:58:43.875Z,38.10
2019-03-31T15:01:15.168Z,38.50
2019-03-31T15:03:44.336Z,38.70
2019-03-31T15:06:16.911Z,38.90
2019-03-31T15:08:54.332Z,38.90
2019-03-31T15:11:15.651Z,39.30
2019-03-31T15:13:44.700Z,39.40
2019-03-31T15:16:14.021Z,40.20
2019-03-31T15:18:42.639Z,39.40
2019-03-31T15:21:11.736Z,39.50
2019-03-31T15:23:40.562Z,40.00
2019-03-31T15:26:09.345Z,40.10
2019-03-31T15:28:38.010Z,39.70
2019-03-31T15:31:06.740Z,40.20
2019-03-31T15:33:35.406Z,39.80
2019-03-31T15:36:04.088Z,40.00
2019-03-31T15:38:32.736Z,40.10
2019-03-31T15:41:01.080Z,40.10
2019-03-31T15:43:29.851Z,40.50
2019-03-31T15:45:58.828Z,40.20
2019-03-31T15:48:27.819Z,40.30
2019-03-31T15:50:57.515Z,40.60
2019-03-31T15:53:26.435Z,40.40
2019-03-31T15:55:55.169Z,40.10
2019-03-31T15:58:25.967Z,40.30
2019-03-31T16:00:54.339Z,41.20
2019-03-31T16:03:23.631Z,41.60
2019-03-31T16:05:52.346Z,41.60
2019-03-31T16:08:20.447Z,41.60
2019-03-31T16:10:48.494Z,41.90
2019-03-31T16:13:16.840Z,41.80
2019-03-31T16:15:44.758Z,42.50
2019-03-31T16:18:12.808Z,42.60
2019-03-31T16:20:41.151Z,42.40
2019-03-31T16:23:09.372Z,42.70
2019-03-31T16:25:39.899Z,42.70
2019-03-31T16:28:07.831Z,42.50
2019-03-31T16:30:36.899Z,42.40
2019-03-31T16:33:07.046Z,42.30
2019-03-31T16:35:35.026Z,42.70
2019-03-31T16:38:03.538Z,43.00
2019-03-31T16:40:31.789Z,43.20
2019-03-31T16:43:00.202Z,43.20
2019-03-31T16:45:28.323Z,43.30
2019-03-31T16:47:56.299Z,43.00
2019-03-31T16:50:24.175Z,43.10
2019-03-31T16:52:52.861Z,43.10
2019-03-31T16:55:21.067Z,43.10
2019-03-31T16:58:01.832Z,43.10
2019-03-31T17:00:29.987Z,43.00
2019-03-31T17:02:58.328Z,43.10
2019-03-31T17:05:26.767Z,43.20
2019-03-31T17:07:54.594Z,43.40
2019-03-31T17:10:22.781Z,43.50
2019-03-31T17:12:50.772Z,43.50
2019-03-31T17:15:18.795Z,43.80
2019-03-31T17:17:46.883Z,44.10
2019-03-31T17:20:15.048Z,44.20
2019-03-31T17:22:43.123Z,44.50
2019-03-31T17:25:11.411Z,44.80
2019-03-31T17:27:39.165Z,45.30
2019-03-31T17:30:07.919Z,45.70
2019-03-31T17:32:37.824Z,46.20
2019-03-31T17:35:06.160Z,46.70
2019-03-31T17:37:34.520Z,47.10
2019-03-31T17:40:06.331Z,47.40
2019-03-31T17:42:33.732Z,47.70
2019-03-31T17:45:02.075Z,48.00
2019-03-31T17:47:30.526Z,48.40
2019-03-31T17:49:58.563Z,48.70
2019-03-31T17:52:26.617Z,49.00
2019-03-31T17:54:57.475Z,49.30
2019-03-31T17:57:26.001Z,49.60
2019-03-31T17:59:53.959Z,49.90
2019-03-31T18:02:22.303Z,50.10
2019-03-31T18:04:50.534Z,50.40
2019-03-31T18:07:18.744Z,50.80
2019-03-31T18:09:47.027Z,51.00
2019-03-31T18:12:14.838Z,51.40
2019-03-31T18:14:42.674Z,51.70
2019-03-31T18:17:10.766Z,51.90
2019-03-31T18:19:38.824Z,52.30
2019-03-31T18:22:20.281Z,52.60
2019-03-31T18:24:48.008Z,53.10
2019-03-31T18:27:16.290Z,53.20
2019-03-31T18:29:44.314Z,53.40
2019-03-31T18:32:12.391Z,53.80
2019-03-31T18:34:40.586Z,54.10
2019-03-31T18:37:08.887Z,54.80
2019-03-31T18:39:37.850Z,54.70
2019-03-31T18:42:05.804Z,54.80
2019-03-31T18:44:34.611Z,55.00
2019-03-31T18:47:02.732Z,55.10
2019-03-31T18:49:30.513Z,55.30
2019-03-31T18:51:58.759Z,55.40
2019-03-31T18:54:49.105Z,55.30
2019-03-31T18:57:46.053Z,55.40
2019-03-31T19:00:33.021Z,55.40
2019-03-31T19:03:20.566Z,55.40
2019-03-31T19:06:01.447Z,55.30
2019-03-31T19:08:48.428Z,55.20
2019-03-31T19:11:48.002Z,55.20
2019-03-31T19:14:38.501Z,55.40
2019-03-31T19:17:32.300Z,55.50
2019-03-31T19:20:10.782Z,55.50
2019-03-31T19:23:04.026Z,55.80
2019-03-31T19:25:49.943Z,55.80
2019-03-31T19:28:26.456Z,55.70
2019-03-31T19:31:14.111Z,55.80
2019-03-31T19:34:04.990Z,55.80
2019-03-31T19:36:55.752Z,55.90
2019-03-31T19:39:49.045Z,55.90
2019-03-31T19:42:46.007Z,56.00
2019-03-31T19:45:36.160Z,56.20
2019-03-31T19:48:39.247Z,56.40
2019-03-31T19:51:30.053Z,56.50
2019-03-31T19:54:21.361Z,56.80
2019-03-31T19:57:18.126Z,56.90
2019-03-31T20:00:18.079Z,57.40
2019-03-31T20:03:12.835Z,57.20
2019-03-31T20:06:06.413Z,57.50
2019-03-31T20:08:39.968Z,57.70
2019-03-31T20:11:45.804Z,57.70
2019-03-31T20:14:36.457Z,58.00
2019-03-31T20:17:14.934Z,58.10
2019-03-31T20:20:11.144Z,58.30
2019-03-31T20:23:16.704Z,58.50
2019-03-31T20:26:10.149Z,58.60
2019-03-31T20:28:52.040Z,58.10
2019-03-31T20:31:45.157Z,58.00
2019-03-31T20:34:31.184Z,58.10
2019-03-31T20:37:18.812Z,58.30
2019-03-31T20:40:06.673Z,58.20
2019-03-31T20:42:54.468Z,58.50
2019-03-31T20:45:22.454Z,58.70
2019-03-31T20:47:50.564Z,59.50
2019-03-31T20:50:19.055Z,62.00
2019-03-31T20:52:47.191Z,65.20
2019-03-31T20:55:16.923Z,65.60
2019-03-31T20:57:45.477Z,67.30
2019-03-31T21:00:14.143Z,67.10
2019-03-31T21:02:42.302Z,67.80
2019-03-31T21:05:10.688Z,68.80
2019-03-31T21:07:39.040Z,69.70
2019-03-31T21:10:07.046Z,69.10
2019-03-31T21:12:35.503Z,68.50
2019-03-31T21:15:04.093Z,68.80
2019-03-31T21:17:32.513Z,68.80
2019-03-31T21:20:00.858Z,67.70
2019-03-31T21:22:29.222Z,68.90
2019-03-31T21:24:57.599Z,69.30
2019-03-31T21:27:26.584Z,69.60
2019-03-31T21:29:54.663Z,69.70
2019-03-31T21:32:22.719Z,69.70
2019-03-31T21:34:50.811Z,69.90
2019-03-31T21:37:19.002Z,69.90
2019-03-31T21:39:46.945Z,69.60
2019-03-31T21:42:15.660Z,69.40
2019-03-31T21:44:44.345Z,68.50
2019-03-31T21:47:12.503Z,69.10
2019-03-31T21:49:40.510Z,69.70
2019-03-31T21:52:09.136Z,69.70
2019-03-31T21:54:37.552Z,69.40
2019-03-31T21:57:05.601Z,70.10
2019-03-31T21:59:33.788Z,70.80
2019-03-31T22:02:02.175Z,70.80
2019-03-31T22:04:30.726Z,70.90
2019-03-31T22:06:59.138Z,70.00
2019-03-31T22:09:27.183Z,70.10
2019-03-31T22:11:55.873Z,70.10
2019-03-31T22:14:24.055Z,72.50
2019-03-31T22:16:52.002Z,74.10
2019-03-31T22:19:20.736Z,75.10
2019-03-31T22:21:48.767Z,75.60
2019-03-31T22:24:16.994Z,76.30
2019-03-31T22:26:44.978Z,79.90
2019-03-31T22:29:13.089Z,83.30
2019-03-31T22:31:41.188Z,85.60
2019-03-31T22:34:09.149Z,87.40
2019-03-31T22:36:37.297Z,88.60
2019-03-31T22:39:06.808Z,89.20
2019-03-31T22:41:35.207Z,90.10
2019-03-31T22:44:03.546Z,90.30
2019-03-31T22:46:31.631Z,90.20
2019-03-31T22:48:59.797Z,90.10
2019-03-31T22:51:28.096Z,90.10
2019-03-31T22:53:56.144Z,90.10
2019-03-31T22:56:24.374Z,90.10
2019-03-31T22:58:52.311Z,89.90
2019-03-31T23:01:20.720Z,89.50
2019-03-31T23:03:48.890Z,89.40
2019-03-31T23:06:16.844Z,88.40
2019-03-31T23:08:45.219Z,87.00
2019-03-31T23:11:13.379Z,87.00
2019-03-31T23:13:41.636Z,86.00
2019-03-31T23:16:09.756Z,86.30
2019-03-31T23:18:38.117Z,86.90
2019-03-31T23:21:06.227Z,87.00
2019-03-31T23:23:34.854Z,86.70
2019-03-31T23:26:02.947Z,86.30
2019-03-31T23:28:31.033Z,86.10
2019-03-31T23:30:59.395Z,85.90
2019-03-31T23:33:27.484Z,85.60
2019-03-31T23:35:56.769Z,85.80
2019-03-31T23:38:24.705Z,86.30
2019-03-31T23:40:52.924Z,86.90
2019-03-31T23:43:24.024Z,87.00
2019-03-31T23:45:52.215Z,87.70
2019-03-31T23:48:20.191Z,88.50
2019-03-31T23:50:48.539Z,89.00
2019-03-31T23:53:16.943Z,89.40
2019-03-31T23:55:44.996Z,89.70
2019-03-31T23:58:13.715Z,90.10
